Terminal Aerodrome Forecast
Issued by NWS

Home | Current Version | Previous Version | Text Only | Print | Product List | Glossary On
Versions: 1 2 3 4 5 6 7 8 9 10 11 12 13 14
845
FTUS43 KIND 051720
TAFBMG
TAF
KBMG 051720Z 0518/0618 11005KT P6SM SCT015 OVC150
     FM060800 10005KT P6SM VCSH OVC045
     FM060900 10005KT P6SM VCSH OVC025
     FM061000 09005KT P6SM VCSH OVC015
     FM061200 06004KT 2SM -RA OVC008
     FM061400 02004KT 1 1/2SM -RA OVC008
     FM061600 35005KT 3SM -RA OVC010=

USA.gov is the U.S. government's official web portal to all federal, state and local government web resources and services.